createdAt,value
2017-09-06T00:02:21.834Z,8.53
2017-09-06T00:04:49.278Z,8.80
2017-09-06T00:07:16.813Z,8.57
2017-09-06T00:09:44.358Z,7.90
2017-09-06T00:12:11.800Z,7.80
2017-09-06T00:14:39.345Z,9.03
2017-09-06T00:17:06.802Z,7.33
2017-09-06T00:19:34.338Z,9.00
2017-09-06T00:22:01.797Z,8.07
2017-09-06T00:24:29.225Z,7.07
2017-09-06T00:26:56.673Z,7.10
2017-09-06T00:29:24.103Z,7.40
2017-09-06T00:31:51.585Z,7.80
2017-09-06T00:34:19.026Z,7.13
2017-09-06T00:36:46.535Z,7.20
2017-09-06T00:39:14.077Z,7.50
2017-09-06T00:41:41.631Z,6.70
2017-09-06T00:44:09.067Z,7.60
2017-09-06T00:46:36.605Z,7.40
2017-09-06T00:49:04.036Z,6.63
2017-09-06T00:51:31.489Z,7.50
2017-09-06T00:53:59.043Z,6.70
2017-09-06T00:56:26.681Z,6.70
2017-09-06T00:58:54.232Z,7.00
2017-09-06T01:01:21.673Z,7.27
2017-09-06T01:03:49.117Z,6.83
2017-09-06T01:06:16.578Z,7.13
2017-09-06T01:08:44.100Z,6.20
2017-09-06T01:11:11.585Z,6.10
2017-09-06T01:13:39.091Z,6.17
2017-09-06T01:16:06.637Z,5.97
2017-09-06T01:18:34.149Z,6.60
2017-09-06T01:21:01.579Z,6.73
2017-09-06T01:23:29.015Z,6.83
2017-09-06T01:25:56.604Z,6.10
2017-09-06T01:28:24.061Z,5.90
2017-09-06T01:30:51.509Z,5.90
2017-09-06T01:33:18.942Z,6.43
2017-09-06T01:35:46.403Z,5.53
2017-09-06T01:38:13.829Z,5.97
2017-09-06T01:40:41.281Z,6.37
2017-09-06T01:43:08.793Z,5.50
2017-09-06T01:45:36.247Z,5.93
2017-09-06T01:48:03.781Z,6.23
2017-09-06T01:50:31.216Z,5.40
2017-09-06T01:52:58.760Z,5.20
2017-09-06T01:55:26.233Z,5.10
2017-09-06T01:57:53.670Z,5.23
2017-09-06T02:00:21.125Z,5.73
2017-09-06T02:02:48.558Z,5.43
2017-09-06T02:05:16.004Z,4.67
2017-09-06T02:07:43.432Z,4.73
2017-09-06T02:10:10.875Z,4.43
2017-09-06T02:12:38.409Z,4.00
2017-09-06T02:15:05.955Z,4.33
2017-09-06T02:17:33.410Z,4.53
2017-09-06T02:20:00.951Z,3.67
2017-09-06T02:22:28.407Z,4.00
2017-09-06T02:24:56.075Z,4.70
2017-09-06T02:27:23.512Z,4.97
2017-09-06T02:29:50.946Z,3.70
2017-09-06T02:32:18.388Z,4.47
2017-09-06T02:34:45.824Z,4.10
2017-09-06T02:37:13.285Z,3.87
2017-09-06T02:39:40.725Z,3.87
2017-09-06T02:42:08.172Z,3.97
2017-09-06T02:44:35.621Z,3.57
2017-09-06T02:47:03.044Z,3.47
2017-09-06T02:49:30.565Z,3.50
2017-09-06T02:51:58.112Z,3.43
2017-09-06T02:54:25.550Z,3.60
2017-09-06T02:56:52.992Z,3.60
2017-09-06T02:59:20.654Z,3.80
2017-09-06T03:01:48.197Z,4.00
2017-09-06T03:04:15.684Z,4.03
2017-09-06T03:06:43.142Z,4.40
2017-09-06T03:09:10.598Z,4.87
2017-09-06T03:11:38.072Z,4.10
2017-09-06T03:14:05.515Z,3.80
2017-09-06T03:16:32.941Z,3.70
2017-09-06T03:19:00.394Z,4.40
2017-09-06T03:21:27.820Z,4.37
2017-09-06T03:23:55.268Z,4.30
2017-09-06T03:26:22.714Z,4.03
2017-09-06T03:28:50.150Z,5.00
2017-09-06T03:31:17.768Z,4.67
2017-09-06T03:33:45.233Z,4.63
2017-09-06T03:36:12.777Z,5.10
2017-09-06T03:38:40.203Z,4.57
2017-09-06T03:41:07.844Z,4.80
2017-09-06T03:43:35.261Z,4.67
2017-09-06T03:46:02.713Z,5.83
2017-09-06T03:48:30.132Z,5.67
2017-09-06T03:50:57.581Z,5.20
2017-09-06T03:53:25.026Z,5.13
2017-09-06T03:55:52.482Z,4.53
2017-09-06T03:58:19.912Z,4.60
2017-09-06T04:00:47.364Z,4.60
2017-09-06T04:03:14.801Z,5.10
2017-09-06T04:05:42.261Z,5.20
2017-09-06T04:08:09.696Z,4.80
2017-09-06T04:10:37.152Z,4.90
2017-09-06T04:13:04.595Z,5.27
2017-09-06T04:15:32.034Z,5.10
2017-09-06T04:17:59.545Z,5.17
2017-09-06T04:20:26.982Z,5.80
2017-09-06T04:22:54.429Z,6.33
2017-09-06T04:25:21.865Z,6.10
2017-09-06T04:27:49.332Z,6.10
2017-09-06T04:30:16.930Z,7.00
2017-09-06T04:32:44.459Z,7.83
2017-09-06T04:35:12.001Z,6.43
2017-09-06T04:37:39.484Z,6.57
2017-09-06T04:40:06.912Z,6.37
2017-09-06T04:42:34.417Z,5.40
2017-09-06T04:45:01.878Z,6.97
2017-09-06T04:47:29.313Z,5.97
2017-09-06T04:49:56.757Z,8.20
2017-09-06T04:52:24.282Z,7.33
2017-09-06T04:54:51.925Z,7.23
2017-09-06T04:57:19.368Z,5.77
2017-09-06T04:59:46.893Z,5.40
2017-09-06T05:02:14.365Z,6.00
2017-09-06T05:04:41.913Z,6.03
2017-09-06T05:07:09.353Z,5.60
2017-09-06T05:09:36.902Z,6.30
2017-09-06T05:12:04.333Z,6.97
2017-09-06T05:14:31.780Z,5.67
2017-09-06T05:16:59.208Z,6.73
2017-09-06T05:19:26.661Z,5.63
2017-09-06T05:21:54.104Z,7.17
2017-09-06T05:24:21.542Z,6.20
2017-09-06T05:26:48.985Z,6.07
2017-09-06T05:29:16.456Z,5.63
2017-09-06T05:31:43.911Z,6.47
2017-09-06T05:34:11.337Z,5.50
2017-09-06T05:36:38.850Z,5.90
2017-09-06T05:39:06.289Z,5.67
2017-09-06T05:41:33.747Z,6.03
2017-09-06T05:44:01.268Z,5.53
2017-09-06T05:46:28.818Z,6.00
2017-09-06T05:48:56.365Z,5.17
2017-09-06T05:51:23.852Z,5.20
2017-09-06T05:53:51.272Z,6.77
2017-09-06T05:56:18.724Z,5.37
2017-09-06T05:58:46.160Z,5.47
2017-09-06T06:01:13.617Z,6.00
2017-09-06T06:03:41.055Z,6.37
2017-09-06T06:06:08.535Z,5.77
2017-09-06T06:08:35.982Z,5.07
2017-09-06T06:11:03.477Z,5.67
2017-09-06T06:13:30.996Z,4.47
2017-09-06T06:15:58.557Z,5.73
2017-09-06T06:18:26.089Z,5.60
2017-09-06T06:20:53.528Z,5.17
2017-09-06T06:23:20.970Z,4.93
2017-09-06T06:25:48.405Z,3.60
2017-09-06T06:28:15.861Z,4.57
2017-09-06T06:30:43.293Z,4.20
2017-09-06T06:33:10.741Z,3.87
2017-09-06T06:35:38.163Z,4.10
2017-09-06T06:38:05.742Z,4.70
2017-09-06T06:40:33.212Z,3.10
2017-09-06T06:43:00.670Z,4.00
2017-09-06T06:45:28.274Z,3.53
2017-09-06T06:47:55.745Z,4.07
2017-09-06T06:50:23.254Z,3.80
2017-09-06T06:52:50.708Z,4.00
2017-09-06T06:55:18.177Z,3.10
2017-09-06T06:57:45.626Z,3.77
2017-09-06T07:00:13.175Z,3.53
2017-09-06T07:02:40.600Z,4.00
2017-09-06T07:05:08.045Z,4.50
2017-09-06T07:07:35.496Z,3.83
2017-09-06T07:10:02.936Z,3.93
2017-09-06T07:12:30.369Z,3.97
2017-09-06T07:14:57.848Z,4.17
2017-09-06T07:17:25.273Z,16.50
2017-09-06T07:19:52.735Z,7.60
2017-09-06T07:22:20.169Z,4.50
2017-09-06T07:24:47.604Z,4.60
2017-09-06T07:27:15.045Z,5.20
2017-09-06T07:29:42.492Z,3.83
2017-09-06T07:32:10.021Z,4.10
2017-09-06T07:34:37.453Z,3.80
2017-09-06T07:37:05.000Z,4.20
2017-09-06T07:39:32.444Z,3.80
2017-09-06T07:41:59.993Z,3.87
2017-09-06T07:44:27.426Z,4.00
2017-09-06T07:46:54.876Z,3.90
2017-09-06T07:49:22.349Z,3.97
2017-09-06T07:51:49.789Z,4.20
2017-09-06T07:54:17.292Z,4.03
2017-09-06T07:56:44.784Z,3.90
2017-09-06T07:59:12.200Z,4.40
2017-09-06T08:01:39.650Z,3.07
2017-09-06T08:04:07.089Z,3.70
2017-09-06T08:06:34.517Z,3.60
2017-09-06T08:09:01.965Z,5.77
2017-09-06T08:11:29.409Z,3.40
2017-09-06T08:13:56.864Z,4.10
2017-09-06T08:16:24.293Z,3.03
2017-09-06T08:18:51.742Z,2.87
2017-09-06T08:21:19.183Z,3.00
2017-09-06T08:23:46.628Z,3.23
2017-09-06T08:26:14.065Z,3.50
2017-09-06T08:28:41.517Z,3.20
2017-09-06T08:31:09.054Z,3.67
2017-09-06T08:33:36.500Z,3.50
2017-09-06T08:36:03.942Z,2.50
2017-09-06T08:38:31.373Z,6.90
2017-09-06T08:40:58.813Z,2.40
2017-09-06T08:43:26.321Z,2.93
2017-09-06T08:45:53.769Z,2.90
2017-09-06T08:48:21.205Z,2.43
2017-09-06T08:50:48.794Z,3.10
2017-09-06T08:53:16.212Z,2.90
2017-09-06T08:55:43.671Z,2.90
2017-09-06T08:58:11.104Z,3.10
2017-09-06T09:00:38.556Z,2.73
2017-09-06T09:03:06.092Z,2.77
2017-09-06T09:05:33.530Z,2.90
2017-09-06T09:08:00.966Z,2.43
2017-09-06T09:10:28.420Z,3.00
2017-09-06T09:12:55.848Z,2.40
2017-09-06T09:15:23.298Z,2.20
2017-09-06T09:17:50.728Z,2.50
2017-09-06T09:20:18.377Z,2.67
2017-09-06T09:22:45.924Z,2.37
2017-09-06T09:25:13.364Z,2.50
2017-09-06T09:27:40.821Z,2.07
2017-09-06T09:30:08.346Z,2.50
2017-09-06T09:32:35.870Z,2.30
2017-09-06T09:35:03.297Z,2.43
2017-09-06T09:37:30.741Z,2.23
2017-09-06T09:39:58.186Z,2.60
2017-09-06T09:42:25.635Z,2.23
2017-09-06T09:44:53.064Z,2.43
2017-09-06T09:47:20.518Z,1.93
2017-09-06T09:49:47.949Z,1.70
2017-09-06T09:52:15.403Z,2.00
2017-09-06T09:54:42.845Z,2.20
2017-09-06T09:57:10.284Z,2.00
2017-09-06T09:59:37.727Z,2.30
2017-09-06T10:02:11.319Z,2.10
2017-09-06T10:04:39.091Z,2.03
2017-09-06T10:07:06.632Z,2.30
2017-09-06T10:09:34.172Z,2.00
2017-09-06T10:12:01.614Z,2.40
2017-09-06T10:14:29.061Z,2.10
2017-09-06T10:16:56.496Z,1.90
2017-09-06T10:19:23.953Z,1.73
2017-09-06T10:21:51.392Z,2.20
2017-09-06T10:24:18.909Z,1.80
2017-09-06T10:26:46.351Z,2.67
2017-09-06T10:29:13.785Z,2.23
2017-09-06T10:31:41.225Z,2.10
2017-09-06T10:34:08.666Z,1.90
2017-09-06T10:36:36.095Z,2.07
2017-09-06T10:39:03.525Z,1.40
2017-09-06T10:41:30.965Z,1.57
2017-09-06T10:43:58.401Z,2.10
2017-09-06T10:46:25.859Z,1.40
2017-09-06T10:48:53.314Z,1.83
2017-09-06T10:51:20.721Z,1.57
2017-09-06T10:53:48.165Z,1.87
2017-09-06T10:56:15.636Z,1.90
2017-09-06T10:58:43.973Z,1.60
2017-09-06T11:01:11.420Z,1.77
2017-09-06T11:03:38.871Z,1.33
2017-09-06T11:06:06.289Z,1.80
2017-09-06T11:08:33.720Z,2.13
2017-09-06T11:11:01.153Z,1.40
2017-09-06T11:13:28.602Z,1.17
2017-09-06T11:15:56.029Z,1.30
2017-09-06T11:18:23.471Z,1.77
2017-09-06T11:20:50.904Z,1.47
2017-09-06T11:23:18.352Z,1.20
2017-09-06T11:25:45.801Z,1.20
2017-09-06T11:28:13.245Z,1.83
2017-09-06T11:30:40.697Z,1.80
2017-09-06T11:33:08.136Z,2.10
2017-09-06T11:35:35.569Z,1.67
2017-09-06T11:38:03.013Z,1.30
2017-09-06T11:40:30.457Z,1.13
2017-09-06T11:42:57.904Z,1.20
2017-09-06T11:45:25.335Z,2.20
2017-09-06T11:47:52.769Z,1.93
2017-09-06T11:50:20.209Z,1.50
2017-09-06T11:52:47.724Z,1.03
2017-09-06T11:55:15.181Z,1.20
2017-09-06T11:57:42.637Z,3.50
2017-09-06T12:00:10.094Z,1.60
2017-09-06T12:02:37.536Z,1.30
2017-09-06T12:05:04.987Z,1.20
2017-09-06T12:07:32.532Z,1.20
2017-09-06T12:09:59.968Z,1.20
2017-09-06T12:12:27.409Z,1.13
2017-09-06T12:14:54.873Z,1.27
2017-09-06T12:17:22.309Z,1.13
2017-09-06T12:19:49.765Z,1.20
2017-09-06T12:22:17.197Z,1.17
2017-09-06T12:24:44.664Z,1.10
2017-09-06T12:27:12.098Z,1.00
2017-09-06T12:29:39.529Z,1.30
2017-09-06T12:32:07.045Z,1.50
2017-09-06T12:34:34.482Z,1.27
2017-09-06T12:37:01.924Z,0.83
2017-09-06T12:39:29.393Z,1.60
2017-09-06T12:41:56.841Z,1.00
2017-09-06T12:44:24.293Z,1.20
2017-09-06T12:46:51.733Z,1.30
2017-09-06T12:49:19.237Z,0.80
2017-09-06T12:51:46.699Z,1.17
2017-09-06T12:54:14.140Z,1.10
2017-09-06T12:56:41.613Z,1.53
2017-09-06T12:59:09.057Z,1.17
2017-09-06T13:01:36.505Z,1.10
2017-09-06T13:04:04.006Z,0.83
2017-09-06T13:06:31.453Z,0.87
2017-09-06T13:08:58.909Z,1.13
2017-09-06T13:11:26.357Z,1.60
2017-09-06T13:13:53.797Z,1.20
2017-09-06T13:16:21.232Z,1.30
2017-09-06T13:18:48.685Z,1.00
2017-09-06T13:21:16.206Z,1.10
2017-09-06T13:23:43.754Z,1.20
2017-09-06T13:26:11.185Z,0.90
2017-09-06T13:28:38.629Z,1.37
2017-09-06T13:31:06.085Z,1.30
2017-09-06T13:33:33.541Z,0.90
2017-09-06T13:36:00.969Z,0.87
2017-09-06T13:38:28.484Z,0.93
2017-09-06T13:40:55.903Z,0.70
2017-09-06T13:43:23.359Z,1.10
2017-09-06T13:45:50.789Z,0.60
2017-09-06T13:48:18.225Z,1.30
2017-09-06T13:50:45.677Z,1.10
2017-09-06T13:53:13.117Z,0.80
2017-09-06T13:55:40.581Z,0.90
2017-09-06T13:58:08.008Z,1.00
2017-09-06T14:00:35.454Z,0.80
2017-09-06T14:03:02.887Z,0.90
2017-09-06T14:05:30.404Z,1.00
2017-09-06T14:07:57.832Z,1.10
2017-09-06T14:10:25.361Z,0.90
2017-09-06T14:12:52.826Z,1.30
2017-09-06T14:15:20.308Z,0.80
2017-09-06T14:17:47.759Z,1.20
2017-09-06T14:20:15.252Z,0.70
2017-09-06T14:22:42.797Z,0.80
2017-09-06T14:25:10.268Z,0.90
2017-09-06T14:27:37.706Z,1.00
2017-09-06T14:30:05.141Z,0.97
2017-09-06T14:32:32.601Z,1.10
2017-09-06T14:35:00.021Z,0.80
2017-09-06T14:37:27.461Z,0.90
2017-09-06T14:39:54.888Z,0.93
2017-09-06T14:42:22.333Z,1.20
2017-09-06T14:44:49.882Z,0.70
2017-09-06T14:47:17.322Z,1.00
2017-09-06T14:49:44.850Z,1.10
2017-09-06T14:52:12.305Z,0.90
2017-09-06T14:54:39.749Z,0.70
2017-09-06T14:57:07.937Z,1.20
2017-09-06T14:59:35.420Z,1.20
2017-09-06T15:02:02.861Z,0.90
2017-09-06T15:04:30.329Z,1.03
2017-09-06T15:06:57.830Z,2.00
2017-09-06T15:09:25.293Z,4.37
2017-09-06T15:11:52.762Z,1.40
2017-09-06T15:14:20.204Z,1.03
2017-09-06T15:16:47.639Z,1.00
2017-09-06T15:19:15.081Z,1.33
2017-09-06T15:21:45.556Z,1.20
2017-09-06T15:24:13.050Z,1.27
2017-09-06T15:26:40.598Z,1.20
2017-09-06T15:29:08.045Z,1.10
2017-09-06T15:31:35.484Z,0.90
2017-09-06T15:34:03.033Z,1.00
2017-09-06T15:36:30.575Z,1.10
2017-09-06T15:38:58.105Z,0.90
2017-09-06T15:41:25.541Z,1.60
2017-09-06T15:43:52.976Z,1.00
2017-09-06T15:46:20.445Z,1.10
2017-09-06T15:48:47.981Z,1.00
2017-09-06T15:51:15.537Z,1.80
2017-09-06T15:53:42.973Z,1.30
2017-09-06T15:56:10.412Z,1.20
2017-09-06T15:58:37.885Z,1.30
2017-09-06T16:01:05.383Z,1.30
2017-09-06T16:03:32.808Z,1.07
2017-09-06T16:06:00.292Z,1.10
2017-09-06T16:08:27.737Z,1.40
2017-09-06T16:10:55.300Z,1.20
2017-09-06T16:13:22.827Z,1.23
2017-09-06T16:15:50.288Z,1.47
2017-09-06T16:18:17.724Z,1.23
2017-09-06T16:20:45.158Z,1.40
2017-09-06T16:23:12.694Z,1.17
2017-09-06T16:25:40.126Z,1.13
2017-09-06T16:28:08.016Z,1.23
2017-09-06T16:30:35.508Z,1.00
2017-09-06T16:33:02.970Z,1.20
2017-09-06T16:35:30.564Z,1.20
2017-09-06T16:37:57.996Z,1.67
2017-09-06T16:40:25.431Z,1.07
2017-09-06T16:42:52.864Z,1.23
2017-09-06T16:45:20.321Z,1.37
2017-09-06T16:47:47.777Z,1.37
2017-09-06T16:50:15.410Z,1.30
2017-09-06T16:52:42.859Z,4.80
2017-09-06T16:55:10.365Z,1.80
2017-09-06T16:57:37.909Z,1.83
2017-09-06T17:00:05.369Z,1.90
2017-09-06T17:02:32.796Z,1.60
2017-09-06T17:05:00.346Z,1.50
2017-09-06T17:07:27.781Z,2.07
2017-09-06T17:09:55.217Z,1.53
2017-09-06T17:12:22.868Z,1.40
2017-09-06T17:14:50.312Z,1.60
2017-09-06T17:17:17.753Z,1.20
2017-09-06T17:19:45.948Z,1.30
2017-09-06T17:22:13.536Z,1.57
2017-09-06T17:24:41.285Z,1.30
2017-09-06T17:27:08.784Z,1.40
2017-09-06T17:29:36.407Z,1.70
2017-09-06T17:32:04.099Z,1.77
2017-09-06T17:34:31.703Z,1.33
2017-09-06T17:36:59.202Z,1.30
2017-09-06T17:39:27.036Z,1.87
2017-09-06T17:41:54.569Z,1.70
2017-09-06T17:44:22.373Z,1.70
2017-09-06T17:46:49.974Z,1.90
2017-09-06T17:49:17.577Z,1.80
2017-09-06T17:51:45.170Z,1.87
2017-09-06T17:54:12.640Z,1.50
2017-09-06T17:56:40.123Z,1.87
2017-09-06T17:59:07.674Z,2.00
2017-09-06T18:01:35.144Z,1.83
2017-09-06T18:04:02.610Z,2.33
2017-09-06T18:06:30.105Z,1.97
2017-09-06T18:08:57.540Z,1.97
2017-09-06T18:11:24.991Z,1.97
2017-09-06T18:13:52.455Z,1.87
2017-09-06T18:16:19.972Z,2.03
2017-09-06T18:18:47.429Z,5.20
2017-09-06T18:21:14.925Z,4.90
2017-09-06T18:23:42.547Z,2.30
2017-09-06T18:26:10.027Z,1.70
2017-09-06T18:28:37.546Z,2.50
2017-09-06T18:31:04.993Z,1.93
2017-09-06T18:33:32.453Z,2.37
2017-09-06T18:35:59.984Z,2.67
2017-09-06T18:38:27.545Z,2.30
2017-09-06T18:40:55.005Z,2.63
2017-09-06T18:43:22.490Z,2.90
2017-09-06T18:45:49.968Z,2.70
2017-09-06T18:48:17.433Z,2.10
2017-09-06T18:50:44.968Z,2.37
2017-09-06T18:53:12.480Z,2.07
2017-09-06T18:55:39.936Z,2.10
2017-09-06T18:58:07.465Z,1.97
2017-09-06T19:00:34.912Z,2.80
2017-09-06T19:03:02.366Z,2.57
2017-09-06T19:05:29.801Z,2.20
2017-09-06T19:07:57.298Z,1.80
2017-09-06T19:10:24.793Z,2.83
2017-09-06T19:12:52.233Z,2.70
2017-09-06T19:15:19.705Z,2.97
2017-09-06T19:17:47.216Z,2.70
2017-09-06T19:20:14.777Z,2.60
2017-09-06T19:22:42.239Z,2.53
2017-09-06T19:25:09.795Z,2.63
2017-09-06T19:27:37.228Z,2.67
2017-09-06T19:30:04.728Z,2.17
2017-09-06T19:32:32.193Z,2.60
2017-09-06T19:34:59.852Z,1.90
2017-09-06T19:37:27.365Z,2.80
2017-09-06T19:39:54.900Z,2.00
2017-09-06T19:42:22.422Z,3.10
2017-09-06T19:44:49.925Z,2.13
2017-09-06T19:47:17.749Z,2.33
2017-09-06T19:49:45.290Z,2.83
2017-09-06T19:52:12.729Z,2.80
2017-09-06T19:54:40.152Z,2.40
2017-09-06T19:57:07.648Z,2.47
2017-09-06T19:59:35.929Z,2.10
2017-09-06T20:02:03.380Z,2.20
2017-09-06T20:04:30.889Z,2.47
2017-09-06T20:06:58.407Z,3.30
2017-09-06T20:09:25.873Z,3.83
2017-09-06T20:11:53.386Z,10.63
2017-09-06T20:14:20.971Z,3.47
2017-09-06T20:16:48.413Z,4.20
2017-09-06T20:19:15.924Z,3.03
2017-09-06T20:21:43.481Z,2.67
2017-09-06T20:24:11.044Z,4.30
2017-09-06T20:26:38.485Z,2.60
2017-09-06T20:29:05.933Z,2.63
2017-09-06T20:31:33.514Z,2.50
2017-09-06T20:34:00.946Z,2.57
2017-09-06T20:36:28.393Z,2.20
2017-09-06T20:38:55.845Z,2.47
2017-09-06T20:41:23.301Z,2.33
2017-09-06T20:43:50.796Z,2.90
2017-09-06T20:46:18.243Z,2.53
2017-09-06T20:48:45.701Z,2.50
2017-09-06T20:51:13.155Z,3.97
2017-09-06T20:53:40.599Z,2.80
2017-09-06T20:56:08.042Z,2.70
2017-09-06T20:58:35.477Z,2.57
2017-09-06T21:01:03.155Z,3.00
2017-09-06T21:03:30.637Z,2.80
2017-09-06T21:05:58.083Z,2.60
2017-09-06T21:08:25.528Z,2.30
2017-09-06T21:10:53.090Z,2.90
2017-09-06T21:13:20.589Z,2.57
2017-09-06T21:15:48.251Z,2.67
2017-09-06T21:18:15.701Z,2.60
2017-09-06T21:20:43.236Z,2.10
2017-09-06T21:23:10.683Z,2.00
2017-09-06T21:25:38.149Z,2.53
2017-09-06T21:28:05.596Z,3.87
2017-09-06T21:30:33.220Z,2.50
2017-09-06T21:33:00.765Z,3.60
2017-09-06T21:35:28.207Z,7.97
2017-09-06T21:37:55.740Z,5.80
2017-09-06T21:40:23.186Z,3.77
2017-09-06T21:42:50.664Z,3.03
2017-09-06T21:45:18.102Z,2.50
2017-09-06T21:47:45.623Z,2.70
2017-09-06T21:50:13.128Z,2.77
2017-09-06T21:52:40.584Z,2.13
2017-09-06T21:55:08.053Z,2.50
2017-09-06T21:57:35.595Z,2.97
2017-09-06T22:00:03.052Z,2.80
2017-09-06T22:02:30.583Z,2.57
2017-09-06T22:04:58.020Z,2.50
2017-09-06T22:07:25.519Z,2.70
2017-09-06T22:09:53.019Z,2.37
2017-09-06T22:12:20.522Z,3.10
2017-09-06T22:14:48.001Z,3.20
2017-09-06T22:17:15.550Z,3.30
2017-09-06T22:19:43.024Z,3.33
2017-09-06T22:22:10.464Z,3.07
2017-09-06T22:24:37.932Z,2.93
2017-09-06T22:27:05.379Z,2.80
2017-09-06T22:29:32.882Z,2.60
2017-09-06T22:32:33.583Z,2.63
2017-09-06T22:35:01.030Z,2.50
2017-09-06T22:37:29.241Z,2.77
2017-09-06T22:39:56.700Z,2.77
2017-09-06T22:42:24.148Z,2.57
2017-09-06T22:44:51.686Z,2.47
2017-09-06T22:47:19.167Z,3.33
2017-09-06T22:49:47.421Z,3.00
2017-09-06T22:52:14.867Z,3.97
2017-09-06T22:54:42.398Z,3.37
2017-09-06T22:57:09.834Z,2.20
2017-09-06T22:59:37.274Z,2.53
2017-09-06T23:02:04.712Z,2.50
2017-09-06T23:04:32.148Z,2.90
2017-09-06T23:06:59.626Z,2.40
2017-09-06T23:09:27.835Z,3.10
2017-09-06T23:11:55.278Z,2.97
2017-09-06T23:14:22.750Z,2.77
2017-09-06T23:16:50.187Z,3.47
2017-09-06T23:19:17.628Z,2.57
2017-09-06T23:21:45.085Z,3.23
2017-09-06T23:24:12.641Z,3.93
2017-09-06T23:26:41.394Z,3.00
2017-09-06T23:29:08.828Z,2.77
2017-09-06T23:31:36.285Z,2.87
2017-09-06T23:34:03.832Z,3.00
2017-09-06T23:36:31.300Z,3.23
2017-09-06T23:38:58.733Z,4.20
2017-09-06T23:41:26.950Z,3.37
2017-09-06T23:43:54.449Z,2.73
2017-09-06T23:46:21.968Z,3.47
2017-09-06T23:48:49.410Z,3.63
2017-09-06T23:51:16.850Z,2.90
2017-09-06T23:53:44.300Z,3.97
2017-09-06T23:56:11.745Z,5.60
2017-09-06T23:58:39.245Z,3.90
